sensor_id;sensor_type;location;lat;lon;timestamp;temperature;humidity
7202;DHT22;3642;52.506;13.304;2022-07-23T00:01:31;22.50;99.90
7202;DHT22;3642;52.506;13.304;2022-07-23T00:03:59;22.50;99.90
7202;DHT22;3642;52.506;13.304;2022-07-23T00:06:28;22.50;99.90
7202;DHT22;3642;52.506;13.304;2022-07-23T00:08:57;22.50;99.90
7202;DHT22;3642;52.506;13.304;2022-07-23T00:11:26;22.50;99.90
7202;DHT22;3642;52.506;13.304;2022-07-23T00:13:55;22.50;99.90
7202;DHT22;3642;52.506;13.304;2022-07-23T00:16:25;22.50;99.90
7202;DHT22;3642;52.506;13.304;2022-07-23T00:18:53;22.50;99.90
7202;DHT22;3642;52.506;13.304;2022-07-23T00:21:21;22.40;99.90
7202;DHT22;3642;52.506;13.304;2022-07-23T00:23:49;22.40;99.90
7202;DHT22;3642;52.506;13.304;2022-07-23T00:26:19;22.30;99.90
7202;DHT22;3642;52.506;13.304;2022-07-23T00:28:47;22.10;99.90
7202;DHT22;3642;52.506;13.304;2022-07-23T00:31:15;22.10;99.90
7202;DHT22;3642;52.506;13.304;2022-07-23T00:33:44;22.10;99.90
7202;DHT22;3642;52.506;13.304;2022-07-23T00:36:12;22.20;99.90
7202;DHT22;3642;52.506;13.304;2022-07-23T00:38:40;22.20;99.90
7202;DHT22;3642;52.506;13.304;2022-07-23T00:41:08;22.30;99.90
7202;DHT22;3642;52.506;13.304;2022-07-23T00:43:38;22.30;99.90
7202;DHT22;3642;52.506;13.304;2022-07-23T00:46:06;22.30;99.90
7202;DHT22;3642;52.506;13.304;2022-07-23T00:48:34;22.20;99.90
7202;DHT22;3642;52.506;13.304;2022-07-23T00:51:03;22.20;99.90
7202;DHT22;3642;52.506;13.304;2022-07-23T00:53:31;22.20;99.90
7202;DHT22;3642;52.506;13.304;2022-07-23T00:55:59;22.20;99.90
7202;DHT22;3642;52.506;13.304;2022-07-23T00:58:27;22.20;99.90
7202;DHT22;3642;52.506;13.304;2022-07-23T01:00:57;22.20;99.90
7202;DHT22;3642;52.506;13.304;2022-07-23T01:03:25;22.10;99.90
7202;DHT22;3642;52.506;13.304;2022-07-23T01:05:53;22.00;99.90
7202;DHT22;3642;52.506;13.304;2022-07-23T01:08:21;22.00;99.90
7202;DHT22;3642;52.506;13.304;2022-07-23T01:10:50;22.00;99.90
7202;DHT22;3642;52.506;13.304;2022-07-23T01:13:19;22.10;99.90
7202;DHT22;3642;52.506;13.304;2022-07-23T01:15:47;22.00;99.90
7202;DHT22;3642;52.506;13.304;2022-07-23T01:18:16;21.90;99.90
7202;DHT22;3642;52.506;13.304;2022-07-23T01:20:45;21.90;99.90
7202;DHT22;3642;52.506;13.304;2022-07-23T01:23:14;21.80;99.90
7202;DHT22;3642;52.506;13.304;2022-07-23T01:25:48;21.80;99.90
7202;DHT22;3642;52.506;13.304;2022-07-23T01:28:16;21.80;99.90
7202;DHT22;3642;52.506;13.304;2022-07-23T01:30:45;21.80;99.90
7202;DHT22;3642;52.506;13.304;2022-07-23T01:33:13;21.80;99.90
7202;DHT22;3642;52.506;13.304;2022-07-23T01:35:41;21.70;99.90
7202;DHT22;3642;52.506;13.304;2022-07-23T01:38:09;21.70;99.90
7202;DHT22;3642;52.506;13.304;2022-07-23T01:40:39;21.70;99.90
7202;DHT22;3642;52.506;13.304;2022-07-23T01:43:08;21.70;99.90
7202;DHT22;3642;52.506;13.304;2022-07-23T01:45:37;21.70;99.90
7202;DHT22;3642;52.506;13.304;2022-07-23T01:48:07;21.70;99.90
7202;DHT22;3642;52.506;13.304;2022-07-23T01:50:37;21.70;99.90
7202;DHT22;3642;52.506;13.304;2022-07-23T01:53:05;21.70;99.90
7202;DHT22;3642;52.506;13.304;2022-07-23T01:55:33;21.80;99.90
7202;DHT22;3642;52.506;13.304;2022-07-23T01:58:02;21.70;99.90
7202;DHT22;3642;52.506;13.304;2022-07-23T02:00:32;21.70;99.90
7202;DHT22;3642;52.506;13.304;2022-07-23T02:03:00;21.40;99.90
7202;DHT22;3642;52.506;13.304;2022-07-23T02:05:29;21.30;99.90
7202;DHT22;3642;52.506;13.304;2022-07-23T02:07:59;21.20;99.90
7202;DHT22;3642;52.506;13.304;2022-07-23T02:10:27;21.30;99.90
7202;DHT22;3642;52.506;13.304;2022-07-23T02:12:55;21.20;99.90
7202;DHT22;3642;52.506;13.304;2022-07-23T02:15:25;21.20;99.90
7202;DHT22;3642;52.506;13.304;2022-07-23T02:17:55;21.20;99.90
7202;DHT22;3642;52.506;13.304;2022-07-23T02:20:24;21.20;99.90
7202;DHT22;3642;52.506;13.304;2022-07-23T02:22:52;21.30;99.90
7202;DHT22;3642;52.506;13.304;2022-07-23T02:25:21;21.30;99.90
7202;DHT22;3642;52.506;13.304;2022-07-23T02:27:50;21.20;99.90
7202;DHT22;3642;52.506;13.304;2022-07-23T02:30:18;21.10;99.90
7202;DHT22;3642;52.506;13.304;2022-07-23T02:32:48;21.10;99.90
7202;DHT22;3642;52.506;13.304;2022-07-23T02:35:16;21.20;99.90
7202;DHT22;3642;52.506;13.304;2022-07-23T02:37:44;21.20;99.90
7202;DHT22;3642;52.506;13.304;2022-07-23T02:40:14;21.10;99.90
7202;DHT22;3642;52.506;13.304;2022-07-23T02:42:42;21.00;99.90
7202;DHT22;3642;52.506;13.304;2022-07-23T02:45:10;21.00;99.90
7202;DHT22;3642;52.506;13.304;2022-07-23T02:47:38;20.90;99.90
7202;DHT22;3642;52.506;13.304;2022-07-23T02:50:08;20.80;99.90
7202;DHT22;3642;52.506;13.304;2022-07-23T02:52:37;20.80;99.90
7202;DHT22;3642;52.506;13.304;2022-07-23T02:55:06;20.80;99.90
7202;DHT22;3642;52.506;13.304;2022-07-23T02:57:34;20.80;99.90
7202;DHT22;3642;52.506;13.304;2022-07-23T03:00:04;20.70;99.90
7202;DHT22;3642;52.506;13.304;2022-07-23T03:02:34;20.60;99.90
7202;DHT22;3642;52.506;13.304;2022-07-23T03:05:03;20.60;99.90
7202;DHT22;3642;52.506;13.304;2022-07-23T03:07:32;20.70;99.90
7202;DHT22;3642;52.506;13.304;2022-07-23T03:10:00;20.70;99.90
7202;DHT22;3642;52.506;13.304;2022-07-23T03:12:29;20.90;99.90
7202;DHT22;3642;52.506;13.304;2022-07-23T03:14:57;20.90;99.90
7202;DHT22;3642;52.506;13.304;2022-07-23T03:17:25;21.00;99.90
7202;DHT22;3642;52.506;13.304;2022-07-23T03:19:53;20.90;99.90
7202;DHT22;3642;52.506;13.304;2022-07-23T03:22:21;21.00;99.90
7202;DHT22;3642;52.506;13.304;2022-07-23T03:24:51;21.00;99.90
7202;DHT22;3642;52.506;13.304;2022-07-23T03:27:22;21.00;99.90
7202;DHT22;3642;52.506;13.304;2022-07-23T03:29:50;21.10;99.90
7202;DHT22;3642;52.506;13.304;2022-07-23T03:32:19;21.10;99.90
7202;DHT22;3642;52.506;13.304;2022-07-23T03:34:48;21.00;99.90
7202;DHT22;3642;52.506;13.304;2022-07-23T03:37:17;20.90;99.90
7202;DHT22;3642;52.506;13.304;2022-07-23T03:39:45;20.90;99.90
7202;DHT22;3642;52.506;13.304;2022-07-23T03:42:14;20.80;99.90
7202;DHT22;3642;52.506;13.304;2022-07-23T03:44:43;20.80;99.90
7202;DHT22;3642;52.506;13.304;2022-07-23T03:47:11;20.80;99.90
7202;DHT22;3642;52.506;13.304;2022-07-23T03:49:39;20.70;99.90
7202;DHT22;3642;52.506;13.304;2022-07-23T03:52:07;20.70;99.90
7202;DHT22;3642;52.506;13.304;2022-07-23T03:54:35;20.70;99.90
7202;DHT22;3642;52.506;13.304;2022-07-23T03:57:03;20.70;99.90
7202;DHT22;3642;52.506;13.304;2022-07-23T03:59:33;20.70;99.90
7202;DHT22;3642;52.506;13.304;2022-07-23T04:02:02;20.70;99.90
7202;DHT22;3642;52.506;13.304;2022-07-23T04:04:30;20.50;99.90
7202;DHT22;3642;52.506;13.304;2022-07-23T04:06:58;20.50;99.90
7202;DHT22;3642;52.506;13.304;2022-07-23T04:09:27;20.50;99.90
7202;DHT22;3642;52.506;13.304;2022-07-23T04:11:56;20.50;99.90
7202;DHT22;3642;52.506;13.304;2022-07-23T04:14:24;20.50;99.90
7202;DHT22;3642;52.506;13.304;2022-07-23T04:16:53;20.50;99.90
7202;DHT22;3642;52.506;13.304;2022-07-23T04:19:21;20.70;99.90
7202;DHT22;3642;52.506;13.304;2022-07-23T04:21:49;20.70;99.90
7202;DHT22;3642;52.506;13.304;2022-07-23T04:24:18;20.80;99.90
7202;DHT22;3642;52.506;13.304;2022-07-23T04:26:46;20.80;99.90
7202;DHT22;3642;52.506;13.304;2022-07-23T04:29:14;20.80;99.90
7202;DHT22;3642;52.506;13.304;2022-07-23T04:31:42;20.80;99.90
7202;DHT22;3642;52.506;13.304;2022-07-23T04:34:12;20.80;99.90
7202;DHT22;3642;52.506;13.304;2022-07-23T04:36:40;20.90;99.90
7202;DHT22;3642;52.506;13.304;2022-07-23T04:39:08;20.90;99.90
7202;DHT22;3642;52.506;13.304;2022-07-23T04:41:36;20.80;99.90
7202;DHT22;3642;52.506;13.304;2022-07-23T04:44:04;20.70;99.90
7202;DHT22;3642;52.506;13.304;2022-07-23T04:46:32;20.60;99.90
7202;DHT22;3642;52.506;13.304;2022-07-23T04:49:01;20.60;99.90
7202;DHT22;3642;52.506;13.304;2022-07-23T04:51:31;20.50;99.90
7202;DHT22;3642;52.506;13.304;2022-07-23T04:53:59;20.40;99.90
7202;DHT22;3642;52.506;13.304;2022-07-23T04:56:27;20.40;99.90
7202;DHT22;3642;52.506;13.304;2022-07-23T04:58:55;20.40;99.90
7202;DHT22;3642;52.506;13.304;2022-07-23T05:01:23;20.50;99.90
7202;DHT22;3642;52.506;13.304;2022-07-23T05:03:52;20.50;99.90
7202;DHT22;3642;52.506;13.304;2022-07-23T05:06:21;20.50;99.90
7202;DHT22;3642;52.506;13.304;2022-07-23T05:08:50;20.50;99.90
7202;DHT22;3642;52.506;13.304;2022-07-23T05:11:18;20.60;99.90
7202;DHT22;3642;52.506;13.304;2022-07-23T05:13:52;20.60;99.90
7202;DHT22;3642;52.506;13.304;2022-07-23T05:16:21;20.60;99.90
7202;DHT22;3642;52.506;13.304;2022-07-23T05:18:49;20.60;99.90
7202;DHT22;3642;52.506;13.304;2022-07-23T05:21:17;20.60;99.90
7202;DHT22;3642;52.506;13.304;2022-07-23T05:23:45;20.60;99.90
7202;DHT22;3642;52.506;13.304;2022-07-23T05:26:15;20.60;99.90
7202;DHT22;3642;52.506;13.304;2022-07-23T05:28:43;20.60;99.90
7202;DHT22;3642;52.506;13.304;2022-07-23T05:31:26;20.60;99.90
7202;DHT22;3642;52.506;13.304;2022-07-23T05:33:54;20.60;99.90
7202;DHT22;3642;52.506;13.304;2022-07-23T05:36:22;20.60;99.90
7202;DHT22;3642;52.506;13.304;2022-07-23T05:38:50;20.70;99.90
7202;DHT22;3642;52.506;13.304;2022-07-23T05:41:19;20.70;99.90
7202;DHT22;3642;52.506;13.304;2022-07-23T05:43:47;20.70;99.90
7202;DHT22;3642;52.506;13.304;2022-07-23T05:46:16;20.70;99.90
7202;DHT22;3642;52.506;13.304;2022-07-23T05:48:44;20.70;99.90
7202;DHT22;3642;52.506;13.304;2022-07-23T05:51:19;20.70;99.90
7202;DHT22;3642;52.506;13.304;2022-07-23T05:53:48;20.80;99.90
7202;DHT22;3642;52.506;13.304;2022-07-23T05:56:18;20.80;99.90
7202;DHT22;3642;52.506;13.304;2022-07-23T05:58:47;20.80;99.90
7202;DHT22;3642;52.506;13.304;2022-07-23T06:01:15;20.80;99.90
7202;DHT22;3642;52.506;13.304;2022-07-23T06:03:44;20.70;99.90
7202;DHT22;3642;52.506;13.304;2022-07-23T06:06:12;20.70;99.90
7202;DHT22;3642;52.506;13.304;2022-07-23T06:08:41;20.80;99.90
7202;DHT22;3642;52.506;13.304;2022-07-23T06:11:12;20.70;99.90
7202;DHT22;3642;52.506;13.304;2022-07-23T06:13:42;20.70;99.90
7202;DHT22;3642;52.506;13.304;2022-07-23T06:16:10;20.70;99.90
7202;DHT22;3642;52.506;13.304;2022-07-23T06:18:38;20.80;99.90
7202;DHT22;3642;52.506;13.304;2022-07-23T06:21:08;20.80;99.90
7202;DHT22;3642;52.506;13.304;2022-07-23T06:23:56;20.70;99.90
7202;DHT22;3642;52.506;13.304;2022-07-23T06:26:25;20.80;99.90
7202;DHT22;3642;52.506;13.304;2022-07-23T06:28:54;20.80;99.90
7202;DHT22;3642;52.506;13.304;2022-07-23T06:31:23;20.80;99.90
7202;DHT22;3642;52.506;13.304;2022-07-23T06:33:52;20.90;99.90
7202;DHT22;3642;52.506;13.304;2022-07-23T06:36:20;20.90;99.90
7202;DHT22;3642;52.506;13.304;2022-07-23T06:38:48;21.00;99.90
7202;DHT22;3642;52.506;13.304;2022-07-23T06:41:17;20.90;99.90
7202;DHT22;3642;52.506;13.304;2022-07-23T06:43:45;21.00;99.90
7202;DHT22;3642;52.506;13.304;2022-07-23T06:46:15;21.00;99.90
7202;DHT22;3642;52.506;13.304;2022-07-23T06:48:44;21.00;99.90
7202;DHT22;3642;52.506;13.304;2022-07-23T06:51:12;20.90;99.90
7202;DHT22;3642;52.506;13.304;2022-07-23T06:53:40;20.90;99.90
7202;DHT22;3642;52.506;13.304;2022-07-23T06:56:08;20.90;99.90
7202;DHT22;3642;52.506;13.304;2022-07-23T06:58:37;20.90;99.90
7202;DHT22;3642;52.506;13.304;2022-07-23T07:01:05;21.00;99.90
7202;DHT22;3642;52.506;13.304;2022-07-23T07:03:35;21.00;99.90
7202;DHT22;3642;52.506;13.304;2022-07-23T07:06:04;21.10;99.90
7202;DHT22;3642;52.506;13.304;2022-07-23T07:08:32;21.20;99.90
7202;DHT22;3642;52.506;13.304;2022-07-23T07:11:01;21.10;99.90
7202;DHT22;3642;52.506;13.304;2022-07-23T07:13:29;21.20;99.90
7202;DHT22;3642;52.506;13.304;2022-07-23T07:15:57;21.30;99.90
7202;DHT22;3642;52.506;13.304;2022-07-23T07:18:25;21.30;99.90
7202;DHT22;3642;52.506;13.304;2022-07-23T07:20:56;21.40;99.90
7202;DHT22;3642;52.506;13.304;2022-07-23T07:23:24;21.50;99.90
7202;DHT22;3642;52.506;13.304;2022-07-23T07:25:53;21.50;99.90
7202;DHT22;3642;52.506;13.304;2022-07-23T07:28:21;21.50;99.90
7202;DHT22;3642;52.506;13.304;2022-07-23T07:30:49;21.60;99.90
7202;DHT22;3642;52.506;13.304;2022-07-23T07:33:18;21.60;99.90
7202;DHT22;3642;52.506;13.304;2022-07-23T07:35:47;21.60;99.90
7202;DHT22;3642;52.506;13.304;2022-07-23T07:38:17;21.60;99.90
7202;DHT22;3642;52.506;13.304;2022-07-23T07:40:46;21.50;99.90
7202;DHT22;3642;52.506;13.304;2022-07-23T07:43:15;21.50;99.90
7202;DHT22;3642;52.506;13.304;2022-07-23T07:45:44;21.50;99.90
7202;DHT22;3642;52.506;13.304;2022-07-23T07:48:13;21.50;99.90
7202;DHT22;3642;52.506;13.304;2022-07-23T07:50:41;21.30;99.90
7202;DHT22;3642;52.506;13.304;2022-07-23T07:53:10;21.20;99.90
7202;DHT22;3642;52.506;13.304;2022-07-23T07:55:40;21.10;99.90
7202;DHT22;3642;52.506;13.304;2022-07-23T07:58:17;21.10;99.90
7202;DHT22;3642;52.506;13.304;2022-07-23T08:00:47;21.00;99.90
7202;DHT22;3642;52.506;13.304;2022-07-23T08:03:16;20.90;99.90
7202;DHT22;3642;52.506;13.304;2022-07-23T08:05:44;20.90;99.90
7202;DHT22;3642;52.506;13.304;2022-07-23T08:08:13;21.00;99.90
7202;DHT22;3642;52.506;13.304;2022-07-23T08:10:47;21.00;99.90
7202;DHT22;3642;52.506;13.304;2022-07-23T08:13:22;20.90;99.90
7202;DHT22;3642;52.506;13.304;2022-07-23T08:15:51;20.80;99.90
7202;DHT22;3642;52.506;13.304;2022-07-23T08:18:20;20.90;99.90
7202;DHT22;3642;52.506;13.304;2022-07-23T08:20:48;21.00;99.90
7202;DHT22;3642;52.506;13.304;2022-07-23T08:23:16;21.00;99.90
7202;DHT22;3642;52.506;13.304;2022-07-23T08:25:47;21.20;99.90
7202;DHT22;3642;52.506;13.304;2022-07-23T08:28:16;21.30;99.90
7202;DHT22;3642;52.506;13.304;2022-07-23T08:30:45;21.20;99.90
7202;DHT22;3642;52.506;13.304;2022-07-23T08:33:17;21.20;99.90
7202;DHT22;3642;52.506;13.304;2022-07-23T08:36:01;21.30;99.90
7202;DHT22;3642;52.506;13.304;2022-07-23T08:38:32;21.30;99.90
7202;DHT22;3642;52.506;13.304;2022-07-23T08:41:03;21.40;99.90
7202;DHT22;3642;52.506;13.304;2022-07-23T08:43:33;21.30;99.90
7202;DHT22;3642;52.506;13.304;2022-07-23T08:46:03;21.40;99.90
7202;DHT22;3642;52.506;13.304;2022-07-23T08:48:34;21.40;99.90
7202;DHT22;3642;52.506;13.304;2022-07-23T08:51:05;21.60;99.90
7202;DHT22;3642;52.506;13.304;2022-07-23T08:53:35;21.70;99.90
7202;DHT22;3642;52.506;13.304;2022-07-23T08:56:06;21.80;99.90
7202;DHT22;3642;52.506;13.304;2022-07-23T08:58:36;21.80;99.90
7202;DHT22;3642;52.506;13.304;2022-07-23T09:01:07;21.90;99.90
7202;DHT22;3642;52.506;13.304;2022-07-23T09:03:37;21.90;99.90
7202;DHT22;3642;52.506;13.304;2022-07-23T09:06:06;21.90;99.90
7202;DHT22;3642;52.506;13.304;2022-07-23T09:08:37;21.90;99.90
7202;DHT22;3642;52.506;13.304;2022-07-23T09:11:08;22.00;99.90
7202;DHT22;3642;52.506;13.304;2022-07-23T09:13:38;22.10;99.90
7202;DHT22;3642;52.506;13.304;2022-07-23T09:16:10;22.20;99.90
7202;DHT22;3642;52.506;13.304;2022-07-23T09:18:43;22.30;99.90
7202;DHT22;3642;52.506;13.304;2022-07-23T09:21:18;22.20;99.90
7202;DHT22;3642;52.506;13.304;2022-07-23T09:23:52;22.10;99.90
7202;DHT22;3642;52.506;13.304;2022-07-23T09:26:38;22.20;99.90
7202;DHT22;3642;52.506;13.304;2022-07-23T09:29:10;22.10;99.90
7202;DHT22;3642;52.506;13.304;2022-07-23T09:31:46;22.30;99.90
7202;DHT22;3642;52.506;13.304;2022-07-23T09:34:18;22.20;99.90
7202;DHT22;3642;52.506;13.304;2022-07-23T09:36:51;22.10;99.90
7202;DHT22;3642;52.506;13.304;2022-07-23T09:39:26;22.10;99.90
7202;DHT22;3642;52.506;13.304;2022-07-23T09:41:58;22.20;99.90
7202;DHT22;3642;52.506;13.304;2022-07-23T09:44:41;22.20;99.90
7202;DHT22;3642;52.506;13.304;2022-07-23T09:47:10;22.40;99.90
7202;DHT22;3642;52.506;13.304;2022-07-23T09:49:38;22.40;99.90
7202;DHT22;3642;52.506;13.304;2022-07-23T09:52:06;22.40;99.90
7202;DHT22;3642;52.506;13.304;2022-07-23T09:54:36;22.30;99.90
7202;DHT22;3642;52.506;13.304;2022-07-23T09:57:09;22.40;99.90
7202;DHT22;3642;52.506;13.304;2022-07-23T09:59:43;22.30;99.90
7202;DHT22;3642;52.506;13.304;2022-07-23T10:02:13;22.40;99.90
7202;DHT22;3642;52.506;13.304;2022-07-23T10:04:42;22.60;99.90
7202;DHT22;3642;52.506;13.304;2022-07-23T10:07:11;22.70;99.90
7202;DHT22;3642;52.506;13.304;2022-07-23T10:09:41;22.60;99.90
7202;DHT22;3642;52.506;13.304;2022-07-23T10:12:14;22.60;99.90
7202;DHT22;3642;52.506;13.304;2022-07-23T10:15:03;22.50;99.90
7202;DHT22;3642;52.506;13.304;2022-07-23T10:17:32;22.50;99.90
7202;DHT22;3642;52.506;13.304;2022-07-23T10:20:02;22.50;99.90
7202;DHT22;3642;52.506;13.304;2022-07-23T10:22:33;22.60;99.90
7202;DHT22;3642;52.506;13.304;2022-07-23T10:25:21;22.50;99.90
7202;DHT22;3642;52.506;13.304;2022-07-23T10:28:07;22.50;99.90
7202;DHT22;3642;52.506;13.304;2022-07-23T10:30:43;22.50;99.90
7202;DHT22;3642;52.506;13.304;2022-07-23T10:33:22;22.50;99.90
7202;DHT22;3642;52.506;13.304;2022-07-23T10:35:59;22.50;99.90
7202;DHT22;3642;52.506;13.304;2022-07-23T10:38:32;22.50;99.90
7202;DHT22;3642;52.506;13.304;2022-07-23T10:41:05;22.50;99.90
7202;DHT22;3642;52.506;13.304;2022-07-23T10:43:35;22.60;99.90
7202;DHT22;3642;52.506;13.304;2022-07-23T10:46:22;22.70;99.90
7202;DHT22;3642;52.506;13.304;2022-07-23T10:49:26;22.90;99.90
7202;DHT22;3642;52.506;13.304;2022-07-23T10:52:26;23.10;99.90
7202;DHT22;3642;52.506;13.304;2022-07-23T10:54:56;23.30;99.90
7202;DHT22;3642;52.506;13.304;2022-07-23T10:57:49;23.50;99.90
7202;DHT22;3642;52.506;13.304;2022-07-23T11:00:23;23.50;99.90
7202;DHT22;3642;52.506;13.304;2022-07-23T11:02:52;23.60;99.90
7202;DHT22;3642;52.506;13.304;2022-07-23T11:05:23;23.60;99.90
7202;DHT22;3642;52.506;13.304;2022-07-23T11:08:15;23.60;99.90
7202;DHT22;3642;52.506;13.304;2022-07-23T11:10:46;23.40;99.90
7202;DHT22;3642;52.506;13.304;2022-07-23T11:13:45;23.40;99.90
7202;DHT22;3642;52.506;13.304;2022-07-23T11:16:41;23.50;99.90
7202;DHT22;3642;52.506;13.304;2022-07-23T11:19:14;23.50;99.90
7202;DHT22;3642;52.506;13.304;2022-07-23T11:21:50;23.50;99.90
7202;DHT22;3642;52.506;13.304;2022-07-23T11:24:23;23.30;99.90
7202;DHT22;3642;52.506;13.304;2022-07-23T11:27:02;23.30;99.90
7202;DHT22;3642;52.506;13.304;2022-07-23T11:29:44;23.40;99.90
7202;DHT22;3642;52.506;13.304;2022-07-23T11:32:37;23.50;99.90
7202;DHT22;3642;52.506;13.304;2022-07-23T11:35:23;23.70;99.90
7202;DHT22;3642;52.506;13.304;2022-07-23T11:37:53;23.90;99.90
7202;DHT22;3642;52.506;13.304;2022-07-23T11:40:25;23.90;99.90
7202;DHT22;3642;52.506;13.304;2022-07-23T11:42:57;23.90;99.90
7202;DHT22;3642;52.506;13.304;2022-07-23T11:45:30;23.90;99.70
7202;DHT22;3642;52.506;13.304;2022-07-23T11:48:00;23.80;99.40
7202;DHT22;3642;52.506;13.304;2022-07-23T11:50:29;23.70;99.60
7202;DHT22;3642;52.506;13.304;2022-07-23T11:52:58;23.70;99.50
7202;DHT22;3642;52.506;13.304;2022-07-23T11:55:26;23.70;99.80
7202;DHT22;3642;52.506;13.304;2022-07-23T11:57:55;23.80;99.80
7202;DHT22;3642;52.506;13.304;2022-07-23T12:00:28;23.80;99.70
7202;DHT22;3642;52.506;13.304;2022-07-23T12:02:59;23.80;99.40
7202;DHT22;3642;52.506;13.304;2022-07-23T12:05:31;23.90;99.60
7202;DHT22;3642;52.506;13.304;2022-07-23T12:08:00;24.00;99.00
7202;DHT22;3642;52.506;13.304;2022-07-23T12:10:33;24.10;98.90
7202;DHT22;3642;52.506;13.304;2022-07-23T12:13:03;24.20;98.60
7202;DHT22;3642;52.506;13.304;2022-07-23T12:15:34;24.10;98.50
7202;DHT22;3642;52.506;13.304;2022-07-23T12:18:06;24.20;98.30
7202;DHT22;3642;52.506;13.304;2022-07-23T12:20:37;24.30;97.80
7202;DHT22;3642;52.506;13.304;2022-07-23T12:23:07;24.30;97.50
7202;DHT22;3642;52.506;13.304;2022-07-23T12:25:39;24.40;97.50
7202;DHT22;3642;52.506;13.304;2022-07-23T12:28:09;24.40;97.50
7202;DHT22;3642;52.506;13.304;2022-07-23T12:30:39;24.60;97.30
7202;DHT22;3642;52.506;13.304;2022-07-23T12:33:08;24.70;96.70
7202;DHT22;3642;52.506;13.304;2022-07-23T12:35:40;24.80;96.00
7202;DHT22;3642;52.506;13.304;2022-07-23T12:38:10;24.80;95.20
7202;DHT22;3642;52.506;13.304;2022-07-23T12:40:43;24.80;95.10
7202;DHT22;3642;52.506;13.304;2022-07-23T12:43:19;24.80;94.60
7202;DHT22;3642;52.506;13.304;2022-07-23T12:45:49;24.90;94.30
7202;DHT22;3642;52.506;13.304;2022-07-23T12:48:24;24.80;93.90
7202;DHT22;3642;52.506;13.304;2022-07-23T12:50:56;24.70;93.90
7202;DHT22;3642;52.506;13.304;2022-07-23T12:53:27;24.60;94.30
7202;DHT22;3642;52.506;13.304;2022-07-23T12:56:02;24.50;94.50
7202;DHT22;3642;52.506;13.304;2022-07-23T12:58:53;24.60;94.70
7202;DHT22;3642;52.506;13.304;2022-07-23T13:01:25;24.60;94.50
7202;DHT22;3642;52.506;13.304;2022-07-23T13:03:59;24.80;94.40
7202;DHT22;3642;52.506;13.304;2022-07-23T13:06:30;24.90;93.90
7202;DHT22;3642;52.506;13.304;2022-07-23T13:08:59;25.00;93.10
7202;DHT22;3642;52.506;13.304;2022-07-23T13:11:29;25.00;93.20
7202;DHT22;3642;52.506;13.304;2022-07-23T13:13:58;25.00;93.20
7202;DHT22;3642;52.506;13.304;2022-07-23T13:16:28;24.80;93.10
7202;DHT22;3642;52.506;13.304;2022-07-23T13:18:57;24.70;93.50
7202;DHT22;3642;52.506;13.304;2022-07-23T13:21:28;24.60;93.60
7202;DHT22;3642;52.506;13.304;2022-07-23T13:23:57;24.60;93.50
7202;DHT22;3642;52.506;13.304;2022-07-23T13:26:26;24.60;93.30
7202;DHT22;3642;52.506;13.304;2022-07-23T13:28:55;24.70;93.20
7202;DHT22;3642;52.506;13.304;2022-07-23T13:31:24;24.80;92.90
7202;DHT22;3642;52.506;13.304;2022-07-23T13:33:53;24.80;92.70
7202;DHT22;3642;52.506;13.304;2022-07-23T13:36:22;24.80;92.70
7202;DHT22;3642;52.506;13.304;2022-07-23T13:38:53;24.90;92.80
7202;DHT22;3642;52.506;13.304;2022-07-23T13:41:21;24.90;92.70
7202;DHT22;3642;52.506;13.304;2022-07-23T13:43:51;25.00;92.40
7202;DHT22;3642;52.506;13.304;2022-07-23T13:46:19;25.00;92.00
7202;DHT22;3642;52.506;13.304;2022-07-23T13:48:48;24.90;91.80
7202;DHT22;3642;52.506;13.304;2022-07-23T13:51:16;24.80;92.00
7202;DHT22;3642;52.506;13.304;2022-07-23T13:53:46;24.80;91.90
7202;DHT22;3642;52.506;13.304;2022-07-23T13:56:17;25.00;91.60
7202;DHT22;3642;52.506;13.304;2022-07-23T13:58:45;25.00;91.50
7202;DHT22;3642;52.506;13.304;2022-07-23T14:01:14;24.90;91.40
7202;DHT22;3642;52.506;13.304;2022-07-23T14:03:44;25.00;91.00
7202;DHT22;3642;52.506;13.304;2022-07-23T14:06:12;25.10;90.60
7202;DHT22;3642;52.506;13.304;2022-07-23T14:08:42;25.30;90.20
7202;DHT22;3642;52.506;13.304;2022-07-23T14:11:11;25.40;90.10
7202;DHT22;3642;52.506;13.304;2022-07-23T14:13:41;25.50;89.30
7202;DHT22;3642;52.506;13.304;2022-07-23T14:16:09;25.50;88.70
7202;DHT22;3642;52.506;13.304;2022-07-23T14:18:38;25.50;87.30
7202;DHT22;3642;52.506;13.304;2022-07-23T14:21:07;25.60;86.90
7202;DHT22;3642;52.506;13.304;2022-07-23T14:23:35;25.60;86.30
7202;DHT22;3642;52.506;13.304;2022-07-23T14:26:05;25.60;86.10
7202;DHT22;3642;52.506;13.304;2022-07-23T14:28:34;25.60;86.40
7202;DHT22;3642;52.506;13.304;2022-07-23T14:31:04;25.70;86.10
7202;DHT22;3642;52.506;13.304;2022-07-23T14:33:46;25.80;84.60
7202;DHT22;3642;52.506;13.304;2022-07-23T14:36:15;25.70;83.60
7202;DHT22;3642;52.506;13.304;2022-07-23T14:38:43;25.70;82.60
7202;DHT22;3642;52.506;13.304;2022-07-23T14:41:12;25.90;82.30
7202;DHT22;3642;52.506;13.304;2022-07-23T14:43:41;26.10;80.80
7202;DHT22;3642;52.506;13.304;2022-07-23T14:46:12;26.30;79.30
7202;DHT22;3642;52.506;13.304;2022-07-23T14:48:41;26.30;79.50
7202;DHT22;3642;52.506;13.304;2022-07-23T14:51:09;26.30;79.40
7202;DHT22;3642;52.506;13.304;2022-07-23T14:53:38;26.30;78.80
7202;DHT22;3642;52.506;13.304;2022-07-23T14:56:06;26.20;79.10
7202;DHT22;3642;52.506;13.304;2022-07-23T14:58:35;26.10;79.00
7202;DHT22;3642;52.506;13.304;2022-07-23T15:01:03;26.10;78.10
7202;DHT22;3642;52.506;13.304;2022-07-23T15:03:33;26.30;77.60
7202;DHT22;3642;52.506;13.304;2022-07-23T15:06:06;26.50;75.30
7202;DHT22;3642;52.506;13.304;2022-07-23T15:08:35;26.50;75.20
7202;DHT22;3642;52.506;13.304;2022-07-23T15:11:03;26.30;74.80
7202;DHT22;3642;52.506;13.304;2022-07-23T15:13:33;26.00;75.00
7202;DHT22;3642;52.506;13.304;2022-07-23T15:16:02;25.80;75.60
7202;DHT22;3642;52.506;13.304;2022-07-23T15:18:34;25.80;75.90
7202;DHT22;3642;52.506;13.304;2022-07-23T15:21:04;26.00;75.80
7202;DHT22;3642;52.506;13.304;2022-07-23T15:23:34;26.00;75.30
7202;DHT22;3642;52.506;13.304;2022-07-23T15:26:05;25.80;75.00
7202;DHT22;3642;52.506;13.304;2022-07-23T15:28:34;25.80;75.10
7202;DHT22;3642;52.506;13.304;2022-07-23T15:31:03;25.90;74.60
7202;DHT22;3642;52.506;13.304;2022-07-23T15:33:36;26.20;73.80
7202;DHT22;3642;52.506;13.304;2022-07-23T15:36:05;26.10;72.70
7202;DHT22;3642;52.506;13.304;2022-07-23T15:38:33;26.30;73.40
7202;DHT22;3642;52.506;13.304;2022-07-23T15:41:02;26.20;71.90
7202;DHT22;3642;52.506;13.304;2022-07-23T15:43:30;26.00;71.50
7202;DHT22;3642;52.506;13.304;2022-07-23T15:45:59;25.90;72.40
7202;DHT22;3642;52.506;13.304;2022-07-23T15:48:27;25.80;72.70
7202;DHT22;3642;52.506;13.304;2022-07-23T15:50:58;25.80;72.20
7202;DHT22;3642;52.506;13.304;2022-07-23T15:53:26;25.90;72.20
7202;DHT22;3642;52.506;13.304;2022-07-23T15:56:04;25.90;71.80
7202;DHT22;3642;52.506;13.304;2022-07-23T15:58:36;25.70;72.40
7202;DHT22;3642;52.506;13.304;2022-07-23T16:01:05;25.80;72.30
7202;DHT22;3642;52.506;13.304;2022-07-23T16:03:35;26.00;71.20
7202;DHT22;3642;52.506;13.304;2022-07-23T16:06:05;26.00;71.90